1968 Tropical Cyclone BERTHA(REGN):BETTY (1968019S12132)


IBTrACS version v04r00. Visit IBTrACS website for data access.
Please direct all questions to the IBTrACS Q and A forum

Storm track - Intensity - Wind Radii - Intensity Data - Source Data - All data

Summary Information

Storm ID 1968019S12132
Start Jan 19 00Z
Landfall Jan 19 12Z, Jan 19 22Z, Jan 20 20Z, Jan 21 12Z
Max Intensity 50 kt (Jan 22 18Z), 988 mb (Jan 22 21Z)
End Jan 26 01Z
ATCF IDs ,SH181968
Track status Best track data.

Storm track plot

Map of storm track

Intensity plots

Map of storm track

Radial wind information

No radial wind information for this storm


Position and Intensity Table

BASIN ISO_TIME_________ NATURE LAT LON WMO PRES USA WIND BOM PRES DS824 WIND DS824 PRES TD9636 WIND NEUMANN WIND NEUMANN PRES
degrees north degrees east mb kts mb kts mb kts kts mb
SI 1968-01-19 00:00:00 TS -12.20 131.80 1000 1000 30 1000
SI 03:00:00 TS -12.07 132.22 999 32 999
SI 06:00:00 TS -12.00 132.30 998 998 35 998
SI 09:00:00 TS -12.05 131.84 998 32 998
SI 10:00:00 TS -12.09 131.62 998 31 998
SI 12:00:00 TS -12.20 131.20 999 999 30 999
SI 15:00:00 TS -12.43 130.81 998 32 998
SI 18:00:00 TS -12.70 130.50 997 997 35 997
SI 21:00:00 TS -12.93 130.24 997 35 996
SI 22:00:00 TS -12.99 130.16 997 35 996
SI 23:30:00 TS -13.09 130.02 997 997 35 996
SI 1968-01-20 00:00:00 TS -13.13 129.96 996 35 996
SI 03:00:00 TS -13.26 129.58 995 37 995
SI 06:00:00 TS -13.48 129.39 995 995 40 995 40 997
SI 09:00:00 TS -13.84 129.45 996 37 997
SI 09:30:00 TS -13.90 129.47 997 997 37 997
SI 10:00:00 TS -13.98 129.37 997 25 36 997
SI 12:00:00 TS -14.21 129.03 25 997 25 35 997
SI 15:00:00 TS -14.42 128.58 27 997 27 35 997
SI 18:00:00 TS -14.59 128.14 30 997 28 35 997
SI 20:30:00 TS -14.70 127.79 997 30 997 29 37 997
SI 21:00:00 TS -14.72 127.72 30 997 29 37 997
SI 22:00:00 TS -14.76 127.58 30 997 30 38 997
SI 23:30:00 TS -14.80 127.35 997 30 997 30 39 997
SI 1968-01-21 00:00:00 TS -14.82 127.25 30 30 40 997
SI 03:00:00 TS -14.88 126.72 32 32 37 996
SI 06:00:00 TS -14.94 126.13 35 33 35 995
SI 09:00:00 TS -15.04 125.50 35 34 35 994
SI 10:00:00 TS -15.08 125.28 35 35 35 994
SI 12:00:00 TS -15.17 124.85 35 32 35 994
SI 15:00:00 TS -15.35 124.21 30 28 37 993
SI 18:00:00 TS -15.54 123.56 25 24 40 993
SI 21:00:00 TS -15.73 122.90 22 21 42 992
SI 22:00:00 TS -15.79 122.68 21 20 43 992
SI 1968-01-22 00:00:00 TS -15.92 122.27 20 21 45 992
SI 01:00:00 TS -15.98 122.08 992 20 992 22 45 991
SI 03:00:00 TS -16.12 121.74 22 24 45 991
SI 06:00:00 TS -16.34 121.24 25 26 45 991
SI 09:00:00 TS -16.55 120.73 27 29 45 990
SI 10:00:00 TS -16.62 120.56 28 30 45 990
SI 12:00:00 TS -16.77 120.22 30 30 45 990
SI 15:00:00 TS -17.00 119.72 32 32 47 989
SI 18:00:00 TS -17.22 119.24 35 33 50 989
SI 21:00:00 TS -17.42 118.80 35 34 50 988
SI 22:00:00 TS -17.48 118.66 35 35 50 988
SI 1968-01-23 00:00:00 TS -17.55 118.40 35 33 50 988
SI 01:00:00 TS -17.58 118.28 988 34 988 32 50 988
SI 03:00:00 TS -17.61 118.02 32 30 50 988
SI 06:00:00 TS -17.64 117.64 30 28 50 988
SI 09:00:00 TS -17.67 117.26 27 25 50 988
SI 10:00:00 TS -17.67 117.14 26 25 50 988
SI 12:00:00 TS -17.67 116.89 25 24 50 988
SI 15:00:00 TS -17.66 116.54 22 22 50 988
SI 18:00:00 TS -17.67 116.19 20 21 50 988
SI 21:00:00 TS -17.73 115.84 20 20 50 988
SI 22:00:00 TS -17.76 115.72 20 20 50 988
SI 1968-01-24 00:00:00 TS -17.84 115.46 20 20 50 988
SI 01:00:00 TS -17.89 115.33 988 20 988 20 50 988
SI 03:00:00 TS -18.01 115.06 20 20 50 988
SI 06:00:00 TS -18.22 114.65 20 20 50 988
SI 09:00:00 TS -18.46 114.26 20 20 50 988
SI 10:00:00 TS -18.55 114.13 20 20 50 988
SI 12:00:00 TS -18.73 113.86 20 20 50 988
SI 15:00:00 TS -19.00 113.42 22 22 50 988
SI 18:00:00 TS -19.29 113.00 25 23 50 989
SI 21:00:00 TS -19.59 112.63 25 24 50 989
SI 22:00:00 TS -19.70 112.52 25 25 50 989
SI 1968-01-25 00:00:00 TS -19.92 112.33 25 25 50 989
SI 01:00:00 TS -20.04 112.24 990 25 990 25 49 989
SI 03:00:00 TS -20.30 112.08 25 25 47 990
SI 06:00:00 TS -20.71 111.88 25 25 45 991
SI 09:00:00 TS -21.13 111.72 25 25 45 991
SI 10:00:00 TS -21.27 111.67 25 25 45 991
SI 12:00:00 TS -21.61 111.58 25 25 45 992
SI 15:00:00 TS -22.16 111.45 25 25 42 993
SI 18:00:00 TS -22.81 111.33 25 25 40 994
SI 21:00:00 TS -23.52 111.22 25 40 994
SI 22:00:00 TS -23.77 111.18 25 40 994
SI 1968-01-26 00:00:00 TS -24.34 111.09 40 995
SI 01:00:00 NR -24.60 111.00 996 996

Source Information

Agency Information
USA bsh181968.txt
TOKYO
CMA
HKO
NEWDELHI
REUNION
BOM IDCKMSTM0S.csv:Line=4985:BERTHA
NADI
WELLINGTON
DS824 aus_area.dat:415:BETTY
TD9636 cons_worldwide_trop_cyclone_18710101-19891231-006:Line=7907
TD9635
NEUMANN tracks.sh:Storm=211:BERTHA:BSH1868:BM366
MLC

All available IBTrACS Data

SEASON BASIN SUBBASIN ISO_TIME_________ NATURE LAT LON WMO PRES WMO AGENCY DIST2LAND LANDFALL IFLAG USA AGENCY USA ATCF_ID USA LAT USA LON USA WIND USA SSHS BOM LAT BOM LON BOM PRES BOM PRES_METHOD DS824 LAT DS824 LON DS824 STAGE DS824 WIND DS824 PRES TD9636 LAT TD9636 LON TD9636 STAGE TD9636 WIND NEUMANN LAT NEUMANN LON NEUMANN CLASS NEUMANN WIND NEUMANN PRES STORM SPEED STORM DIR
Year degrees north degrees east mb km km degrees north degrees east kts 1 degrees north degrees east mb degrees north degrees east kts mb degrees north degrees east kts degrees north degrees east kts mb kts degrees
1968 SI WA 1968-01-19 00:00:00 TS -12.20 131.80 1000 bom 11 11 ______O__O____ -1 -12.20 131.80 1000 -12.20 131.80 TC 30 1000 9 72
1968 SI WA 03:00:00 TS -12.07 132.22 22 15 ______P__P____ -1 -12.07 132.22 999 -12.07 132.22 TC 32 999 5 68
1968 SI WA 06:00:00 TS -12.00 132.30 998 bom 24 24 ______O__O____ -1 -12.00 132.30 998 -12.00 132.30 TC 35 998 4 273
1968 SI WA 09:00:00 TS -12.05 131.84 33 22 ______P__P____ -1 -12.05 131.84 998 -12.05 131.84 TC 32 998 10 262
1968 SI WA 10:00:00 TS -12.09 131.62 22 0 ______P__P____ -1 -12.09 131.62 998 -12.09 131.62 TC 31 998 13 256
1968 SI WA 12:00:00 TS -12.20 131.20 999 bom 0 0 ______O__O____ -1 -12.20 131.20 999 -12.20 131.20 TC 30 999 10 247
1968 SI WA 15:00:00 TS -12.43 130.81 0 0 ______P__P____ -1 -12.42 130.81 998 -12.44 130.81 TC 32 998 8 234
1968 SI WA 18:00:00 TS -12.70 130.50 997 bom 0 0 ______O__O____ -1 -12.70 130.50 997 -12.70 130.50 TC 35 997 7 228
1968 SI WA 21:00:00 TS -12.93 130.24 10 0 ______P__P____ -1 -12.99 130.23 997 -12.86 130.26 TC 35 996 7 228
1968 SI WA 22:00:00 TS -12.99 130.16 0 0 ______P__P____ -1 -13.08 130.14 997 -12.90 130.18 TC 35 996 6 233
1968 SI WA 23:30:00 TS -13.09 130.02 997 bom 10 10 ______O__P____ -1 -13.20 130.00 997 -12.97 130.05 TC 35 996 7 234
1968 SI WA 1968-01-20 00:00:00 TS -13.13 129.96 10 10 ______P__O____ -1 -13.22 129.93 996 -13.00 130.00 TC 35 996 8 248
1968 SI WA 03:00:00 TS -13.26 129.58 31 31 ______P__P____ -1 -13.24 129.45 995 -13.19 129.64 TC 37 995 7 238
1968 SI WA 06:00:00 TS -13.48 129.39 995 bom 43 34 ______O__O__O_ -1 -13.40 129.20 995 -13.40 129.20 TC 40 995 -13.60 129.90 TC 40 997 6 192
1968 SI WA 09:00:00 TS -13.84 129.45 24 21 ______P_____P_ -1 -13.91 129.46 996 TC -13.87 129.74 TC 37 997 7 170
1968 SI WA 09:30:00 TS -13.90 129.47 997 bom 21 24 ______O_____P_ -1 -14.00 129.50 997 TC -13.91 129.71 TC 37 997 10 209
1968 SI WA 10:00:00 TS -13.98 129.37 24 24 ______P___O_P_ -1 -14.07 129.50 997 TC -14.40 128.30 1 25 -13.95 129.67 TC 36 997 13 234
1968 SI WA 12:00:00 TS -14.21 129.03 44 44 O_____P___P_O_ jtwc_sh SH181968 -14.50 128.20 25 -1 -14.28 129.39 997 -14.51 128.16 1 25 -14.10 129.50 TC 35 997 11 240
1968 SI WA 15:00:00 TS -14.42 128.58 54 11 P_____P___P_P_ SH181968 -14.67 127.97 27 -1 -14.46 128.96 997 -14.66 127.94 1 27 -14.27 129.14 TC 35 997 9 246
1968 SI WA 18:00:00 TS -14.59 128.14 10 0 O_____P___P_O_ jtwc_sh SH181968 -14.80 127.70 30 -1 -14.54 128.40 997 -14.79 127.67 1 28 -14.40 128.70 TC 35 997 9 250
1968 SI WA 20:30:00 TS -14.70 127.79 997 bom 0 0 P_____O___P_P_ SH181968 -14.86 127.41 30 -1 -14.60 128.00 997 -14.87 127.40 1 29 -14.52 128.35 TC 37 997 8 253
1968 SI WA 21:00:00 TS -14.72 127.72 0 0 P_____P___P_P_ SH181968 -14.87 127.34 30 -1 -14.62 127.95 997 -14.88 127.33 1 29 -14.55 128.28 TC 37 997 8 254
1968 SI WA 22:00:00 TS -14.76 127.58 0 0 P_____P___O_P_ SH181968 -14.89 127.21 30 -1 -14.65 127.85 997 -14.90 127.20 1 30 -14.60 128.13 TC 38 997 9 257
1968 SI WA 23:30:00 TS -14.80 127.35 997 bom 0 0 P_____O___P_P_ SH181968 -14.90 126.98 30 -1 -14.70 127.70 997 -14.92 126.98 1 30 -14.67 127.89 TC 39 997 10 258
1968 SI WA 1968-01-21 00:00:00 TS -14.82 127.25 0 0 O_____P___P_O_ jtwc_sh SH181968 -14.90 126.90 30 -1 -14.72 127.64 -14.92 126.90 1 30 -14.70 127.80 TC 40 997 11 263
1968 SI WA 03:00:00 TS -14.88 126.72 0 0 P_____P___P_P_ SH181968 -14.89 126.38 32 -1 -14.84 127.20 -14.93 126.38 1 32 -14.85 127.24 TC 37 996 11 264
1968 SI WA 06:00:00 TS -14.94 126.13 0 0 O_____P___P_O_ jtwc_sh SH181968 -14.90 125.80 35 0 -14.97 126.63 -14.93 125.81 1 33 -15.00 126.60 TC 35 995 12 262
1968 SI WA 09:00:00 TS -15.04 125.50 0 0 P_____P___P_P_ SH181968 -14.97 125.21 35 0 -15.12 125.98 -14.97 125.20 1 34 -15.15 125.91 TC 35 994 12 261
1968 SI WA 10:00:00 TS -15.08 125.28 10 0 P_____P___O_P_ SH181968 -15.01 125.01 35 0 -15.17 125.74 -15.00 125.00 2 35 -15.20 125.67 TC 35 994 13 258
1968 SI WA 12:00:00 TS -15.17 124.85 0 0 O_____P___P_O_ jtwc_sh SH181968 -15.10 124.60 35 0 -15.28 125.25 -15.09 124.60 2 32 -15.30 125.20 TC 35 994 13 255
1968 SI WA 15:00:00 TS -15.35 124.21 39 30 P_____P___P_P_ SH181968 -15.28 124.00 30 -1 -15.44 124.49 -15.27 124.00 2 28 -15.45 124.55 TC 37 993 13 254
1968 SI WA 18:00:00 TS -15.54 123.56 79 70 O_____P___P_O_ jtwc_sh SH181968 -15.50 123.40 25 -1 -15.61 123.71 -15.49 123.39 2 24 -15.60 123.90 TC 40 993 13 253
1968 SI WA 21:00:00 TS -15.73 122.90 89 79 P_____P___P_P_ SH181968 -15.69 122.78 22 -1 -15.78 122.95 -15.72 122.79 2 21 -15.75 123.18 TC 42 992 13 253
1968 SI WA 22:00:00 TS -15.79 122.68 81 79 P_____P___O_P_ SH181968 -15.76 122.58 21 -1 -15.83 122.70 -15.80 122.60 1 20 -15.80 122.94 TC 43 992 13 252
1968 SI WA 1968-01-22 00:00:00 TS -15.92 122.27 92 92 O_____P___P_O_ jtwc_sh SH181968 -15.90 122.20 20 -1 -15.94 122.23 -15.94 122.23 1 21 -15.90 122.50 TC 45 992 12 251
1968 SI WA 01:00:00 TS -15.98 122.08 992 bom 100 100 P_____O___P_P_ SH181968 -15.98 122.02 20 -1 -16.00 122.00 992 -16.01 122.05 1 22 -15.95 122.31 TC 45 991 11 248
1968 SI WA 03:00:00 TS -16.12 121.74 123 115 P_____P___P_P_ SH181968 -16.14 121.69 22 -1 -16.12 121.64 -16.16 121.69 1 24 -16.05 121.96 TC 45 991 11 246
1968 SI WA 06:00:00 TS -16.34 121.24 147 140 O_____P___P_O_ jtwc_sh SH181968 -16.40 121.20 25 -1 -16.30 121.12 -16.39 121.18 1 26 -16.20 121.50 TC 45 991 11 246
1968 SI WA 09:00:00 TS -16.55 120.73 183 177 P_____P___P_P_ SH181968 -16.65 120.65 27 -1 -16.48 120.63 -16.62 120.67 1 29 -16.34 121.05 TC 45 990 11 246
1968 SI WA 10:00:00 TS -16.62 120.56 187 187 P_____P___O_P_ SH181968 -16.73 120.46 28 -1 -16.54 120.48 -16.70 120.50 1 30 -16.39 120.90 TC 45 990 11 246
1968 SI WA 12:00:00 TS -16.77 120.22 219 219 O_____P___P_O_ jtwc_sh SH181968 -16.90 120.10 30 -1 -16.66 120.17 -16.88 120.14 1 30 -16.50 120.60 TC 45 990 11 245
1968 SI WA 15:00:00 TS -17.00 119.72 263 263 P_____P___P_P_ SH181968 -17.16 119.58 32 -1 -16.83 119.73 -17.16 119.61 1 32 -16.70 120.10 TC 47 989 10 244
1968 SI WA 18:00:00 TS -17.22 119.24 307 301 O_____P___P_O_ jtwc_sh SH181968 -17.40 119.10 35 0 -16.99 119.30 -17.42 119.10 1 33 -16.90 119.60 TC 50 989 10 245
1968 SI WA 21:00:00 TS -17.42 118.80 303 293 P_____P___P_P_ SH181968 -17.62 118.67 35 0 -17.14 118.87 -17.64 118.64 1 34 -17.07 119.14 TC 50 988 9 245
1968 SI WA 22:00:00 TS -17.48 118.66 293 293 P_____P___O_P_ SH181968 -17.69 118.54 35 0 -17.18 118.73 -17.70 118.50 1 35 -17.12 118.99 TC 50 988 8 250
1968 SI WA 1968-01-23 00:00:00 TS -17.55 118.40 289 289 O_____P___P_O_ jtwc_sh SH181968 -17.80 118.30 35 0 -17.26 118.44 -17.80 118.25 1 33 -17.20 118.70 TC 50 988 8 255
1968 SI WA 01:00:00 TS -17.58 118.28 988 bom 292 292 P_____O___P_P_ SH181968 -17.85 118.19 34 0 -17.30 118.30 988 4 -17.84 118.14 1 32 -17.23 118.55 TC 50 988 7 261
1968 SI WA 03:00:00 TS -17.61 118.02 302 302 P_____P___P_P_ SH181968 -17.93 117.98 32 -1 -17.33 117.98 -17.90 117.93 1 30 -17.26 118.25 TC 50 988 7 264
1968 SI WA 06:00:00 TS -17.64 117.64 317 306 O_____P___P_O_ jtwc_sh SH181968 -18.00 117.70 30 -1 -17.36 117.50 -17.96 117.65 1 28 -17.30 117.80 TC 50 988 7 266
1968 SI WA 09:00:00 TS -17.67 117.26 313 313 P_____P___P_P_ SH181968 -18.02 117.39 27 -1 -17.36 117.03 -17.99 117.39 1 25 -17.35 117.35 TC 50 988 7 267
1968 SI WA 10:00:00 TS -17.67 117.14 319 319 P_____P___O_P_ SH181968 -18.02 117.29 26 -1 -17.37 116.87 -18.00 117.30 1 25 -17.37 117.20 TC 50 988 7 269
1968 SI WA 12:00:00 TS -17.67 116.89 324 324 O_____P___P_O_ jtwc_sh SH181968 -18.00 117.10 25 -1 -17.37 116.56 -18.00 117.13 1 24 -17.40 116.90 TC 50 988 7 271
1968 SI WA 15:00:00 TS -17.66 116.54 325 325 P_____P___P_P_ SH181968 -17.93 116.85 22 -1 -17.37 116.10 -17.97 116.87 1 22 -17.45 116.45 TC 50 988 7 270
1968 SI WA 18:00:00 TS -17.67 116.19 328 328 O_____P___P_O_ jtwc_sh SH181968 -17.90 116.60 20 -1 -17.40 115.66 -17.95 116.61 1 21 -17.50 116.00 TC 50 988 7 265
1968 SI WA 21:00:00 TS -17.73 115.84 337 330 P_____P___P_P_ SH181968 -17.96 116.33 20 -1 -17.46 115.23 -17.98 116.31 1 20 -17.53 115.53 TC 50 988 7 260
1968 SI WA 22:00:00 TS -17.76 115.72 330 330 P_____P___O_P_ SH181968 -18.00 116.23 20 -1 -17.48 115.09 -18.00 116.20 1 20 -17.54 115.38 TC 50 988 7 252
1968 SI WA 1968-01-24 00:00:00 TS -17.84 115.46 337 331 O_____P___P_O_ jtwc_sh SH181968 -18.10 116.00 20 -1 -17.56 114.83 -18.08 115.96 1 20 -17.60 115.10 TC 50 988 8 250
1968 SI WA 01:00:00 TS -17.89 115.33 988 bom 335 330 P_____O___P_P_ SH181968 -18.15 115.87 20 -1 -17.60 114.70 988 -18.13 115.83 1 20 -17.64 114.97 TC 50 988 8 247
1968 SI WA 03:00:00 TS -18.01 115.06 335 334 P_____P___P_P_ SH181968 -18.28 115.57 20 -1 -17.70 114.44 -18.26 115.56 1 20 -17.76 114.73 TC 50 988 9 243
1968 SI WA 06:00:00 TS -18.22 114.65 340 335 O_____P___P_O_ jtwc_sh SH181968 -18.50 115.10 20 -1 -17.89 114.06 -18.47 115.12 1 20 -18.00 114.40 TC 50 988 9 239
1968 SI WA 09:00:00 TS -18.46 114.26 334 334 P_____P___P_P_ SH181968 -18.74 114.66 20 -1 -18.11 113.71 -18.72 114.66 1 20 -18.28 114.10 TC 50 988 9 236
1968 SI WA 10:00:00 TS -18.55 114.13 337 333 P_____P___O_P_ SH181968 -18.83 114.52 20 -1 -18.20 113.60 -18.80 114.50 1 20 -18.39 114.00 TC 50 988 9 235
1968 SI WA 12:00:00 TS -18.73 113.86 340 328 O_____P___P_O_ jtwc_sh SH181968 -19.00 114.20 20 -1 -18.38 113.38 -18.95 114.16 1 20 -18.60 113.80 TC 50 988 10 236
1968 SI WA 15:00:00 TS -19.00 113.42 330 308 P_____P___P_P_ SH181968 -19.25 113.64 22 -1 -18.69 113.07 -19.19 113.62 1 22 -18.90 113.45 TC 50 988 10 235
1968 SI WA 18:00:00 TS -19.29 113.00 308 290 O_____P___P_O_ jtwc_sh SH181968 -19.50 113.10 25 -1 -19.03 112.78 -19.44 113.10 1 23 -19.20 113.10 TC 50 989 10 232
1968 SI WA 21:00:00 TS -19.59 112.63 295 285 P_____P___P_P_ SH181968 -19.74 112.65 25 -1 -19.42 112.51 -19.71 112.63 1 24 -19.47 112.78 TC 50 989 9 228
1968 SI WA 22:00:00 TS -19.70 112.52 291 278 P_____P___O_P_ SH181968 -19.83 112.53 25 -1 -19.56 112.43 -19.80 112.50 1 25 -19.57 112.68 TC 50 989 9 221
1968 SI WA 1968-01-25 00:00:00 TS -19.92 112.33 284 276 O_____P___P_O_ jtwc_sh SH181968 -20.00 112.30 25 -1 -19.85 112.27 -19.98 112.28 1 25 -19.80 112.50 TC 50 989 9 218
1968 SI WA 01:00:00 TS -20.04 112.24 990 bom 282 266 P_____O___P_P_ SH181968 -20.09 112.19 25 -1 -20.00 112.20 990 -20.07 112.18 1 25 -19.94 112.42 TC 49 989 9 212
1968 SI WA 03:00:00 TS -20.30 112.08 266 255 P_____P___P_P_ SH181968 -20.29 112.01 25 -1 -20.32 112.06 -20.26 112.01 1 25 -20.26 112.28 TC 47 990 9 207
1968 SI WA 06:00:00 TS -20.71 111.88 255 248 O_____P___P_O_ jtwc_sh SH181968 -20.60 111.80 25 -1 -20.83 111.87 -20.56 111.81 1 25 -20.80 112.10 TC 45 991 9 202
1968 SI WA 09:00:00 TS -21.13 111.72 253 248 P_____P___P_P_ SH181968 -20.88 111.63 25 -1 -21.37 111.70 -20.88 111.65 1 25 -21.33 111.94 TC 45 991 9 199
1968 SI WA 10:00:00 TS -21.27 111.67 243 234 P_____P___O_P_ SH181968 -20.98 111.59 25 -1 -21.55 111.65 -21.00 111.60 1 25 -21.52 111.89 TC 45 991 10 195
1968 SI WA 12:00:00 TS -21.61 111.58 234 223 O_____P___P_O_ jtwc_sh SH181968 -21.20 111.50 25 -1 -21.94 111.55 -21.24 111.51 1 25 -21.90 111.80 TC 45 992 11 193
1968 SI WA 15:00:00 TS -22.16 111.45 230 225 P_____P___P_P_ SH181968 -21.58 111.36 25 -1 -22.53 111.41 -21.63 111.38 1 25 -22.50 111.65 TC 42 993 12 191
1968 SI WA 18:00:00 TS -22.81 111.33 236 233 O_____P___P_O_ jtwc_sh SH181968 -22.00 111.20 25 -1 -23.14 111.28 -22.04 111.26 1 25 -23.10 111.50 TC 40 994 14 189
1968 SI WA 21:00:00 TS -23.52 111.22 238 234 ______P___P_P_ SH181968 -1 -23.76 111.16 -22.46 111.14 1 25 -23.66 111.35 TC 40 994 15 188
1968 SI WA 22:00:00 TS -23.77 111.18 233 227 ______P___O_P_ SH181968 -1 -23.97 111.12 -22.60 111.10 1 25 -23.84 111.30 TC 40 994 17 188
1968 SI WA 1968-01-26 00:00:00 TS -24.34 111.09 233 232 ______P_____O_ -1 -24.39 111.04 1 -24.20 111.20 TC 40 995 17 191
1968 SI WA 01:00:00 NR -24.60 111.00 996 bom 243 ______O_______ -1 -24.60 111.00 996 1 TC 16 200